Time;durP1;ratioP1;P1;durP2;ratioP2;P2;SDS_P1;SDS_P2;PMS_P1;PMS_P2;Temp;Humidity;BMP_temperature;BMP_pressure;BME280_temperature;BME280_humidity;BME280_pressure;Samples;Min_cycle;Max_cycle;Signal;HPM_P1;HPM_P2
2023/10/07 00:01:53;;;;;;;21.00;6.87;;;;;;;10.64;55.61;101274.01;124725;1099;104310;-76
2023/10/07 00:04:25;;;;;;;20.60;7.10;;;;;;;10.70;56.15;101266.42;124853;1099;104179;-75
2023/10/07 00:06:59;;;;;;;21.07;6.93;;;;;;;10.73;55.96;101266.57;124751;1099;101938;-74
2023/10/07 00:09:31;;;;;;;18.07;6.90;;;;;;;10.75;55.95;101264.02;124694;1099;104162;-74
2023/10/07 00:12:03;;;;;;;17.50;6.87;;;;;;;10.77;56.26;101257.14;124747;1099;104163;-74
2023/10/07 00:14:36;;;;;;;23.27;7.50;;;;;;;10.82;56.53;101255.62;124753;1099;104226;-74
2023/10/07 00:17:12;;;;;;;18.33;7.13;;;;;;;10.86;56.05;101254.02;124778;1098;102107;-74
2023/10/07 00:19:44;;;;;;;20.83;7.70;;;;;;;10.88;56.49;101249.77;124662;1099;104191;-74
2023/10/07 00:22:19;;;;;;;19.50;7.27;;;;;;;10.87;56.21;101251.47;124730;1099;104162;-74
2023/10/07 00:24:52;;;;;;;17.13;6.87;;;;;;;10.88;56.44;101252.39;124713;1099;104238;-74
2023/10/07 00:27:29;;;;;;;19.20;7.10;;;;;;;10.87;56.31;101247.95;124378;1099;102241;-74
2023/10/07 00:30:06;;;;;;;21.40;7.20;;;;;;;10.86;56.64;101246.14;124815;1099;101939;-74
2023/10/07 00:32:38;;;;;;;18.53;6.67;;;;;;;10.87;56.41;101243.59;124736;1099;104171;-74
2023/10/07 00:35:11;;;;;;;21.77;7.30;;;;;;;10.88;56.57;101240.15;124716;1099;101986;-74
2023/10/07 00:37:44;;;;;;;20.47;7.23;;;;;;;10.91;56.34;101242.03;124772;1099;104108;-74
2023/10/07 00:40:30;;;;;;;19.07;6.73;;;;;;;10.89;56.88;101241.03;124545;1099;101903;-74
2023/10/07 00:43:07;;;;;;;21.40;7.93;;;;;;;10.86;56.76;101239.19;124256;1099;102038;-74
2023/10/07 00:45:40;;;;;;;21.47;7.63;;;;;;;10.83;56.69;101232.88;124443;1099;101977;-74
2023/10/07 00:48:11;;;;;;;18.53;6.90;;;;;;;10.84;56.75;101232.06;124426;1098;104296;-74
2023/10/07 00:50:43;;;;;;;20.60;7.13;;;;;;;10.84;57.00;101224.19;124503;1099;104086;-74
2023/10/07 00:53:14;;;;;;;23.10;7.23;;;;;;;10.81;56.99;101218.79;124418;1099;104176;-74
2023/10/07 00:55:47;;;;;;;19.53;7.43;;;;;;;10.78;57.36;101219.53;124367;1099;102262;-74
2023/10/07 00:58:20;;;;;;;19.20;6.87;;;;;;;10.76;57.30;101214.21;124327;1099;101898;-74
2023/10/07 01:00:55;;;;;;;19.25;7.10;;;;;;;10.75;56.93;101212.44;124233;1099;101843;-74
2023/10/07 01:03:47;;;;;;;21.83;7.33;;;;;;;10.70;57.03;101219.17;124283;1099;104179;-74
2023/10/07 01:06:29;;;;;;;20.50;6.90;;;;;;;10.65;57.34;101217.19;124302;1099;104232;-74
2023/10/07 01:09:11;;;;;;;23.20;7.73;;;;;;;10.61;57.62;101214.42;124285;1099;104137;-73
2023/10/07 01:11:46;;;;;;;19.87;7.40;;;;;;;10.58;57.21;101213.35;124564;1099;104166;-74
2023/10/07 01:14:20;;;;;;;23.30;7.70;;;;;;;10.54;57.87;101216.68;124537;1099;104241;-74
2023/10/07 01:16:52;;;;;;;19.50;7.80;;;;;;;10.50;57.69;101219.97;124284;1099;101855;-74
2023/10/07 01:19:36;;;;;;;19.23;7.40;;;;;;;10.38;57.64;101217.69;124213;1100;103841;-73
2023/10/07 01:22:12;;;;;;;20.05;7.87;;;;;;;10.25;58.04;101214.44;124262;1099;101836;-74
2023/10/07 01:24:49;;;;;;;16.57;6.80;;;;;;;10.16;57.68;101218.31;124236;1099;104307;-74
2023/10/07 01:27:29;;;;;;;20.80;7.33;;;;;;;10.13;58.02;101218.16;124675;1098;107101;-74
2023/10/07 01:30:06;;;;;;;20.47;6.97;;;;;;;10.11;57.76;101222.44;124743;1099;104348;-74
2023/10/07 01:32:48;;;;;;;21.73;8.40;;;;;;;10.11;58.03;101214.57;124759;1099;104191;-74
2023/10/07 01:35:25;;;;;;;26.83;7.63;;;;;;;10.14;58.57;101212.98;124302;1100;104420;-74
2023/10/07 01:38:07;;;;;;;18.80;7.80;;;;;;;10.15;58.04;101206.05;124345;1099;104229;-75
2023/10/07 01:40:55;;;;;;;24.13;8.17;;;;;;;10.12;58.07;101203.27;124681;1099;104239;-74
2023/10/07 01:43:26;;;;;;;22.20;8.43;;;;;;;10.11;58.33;101204.08;124678;1099;104230;-74
2023/10/07 01:45:58;;;;;;;22.53;8.13;;;;;;;10.13;58.24;101194.55;124677;1099;104235;-74
2023/10/07 01:48:29;;;;;;;22.03;8.07;;;;;;;10.14;58.95;101193.75;124724;1099;104194;-74
2023/10/07 01:51:05;;;;;;;19.73;7.53;;;;;;;10.09;58.93;101198.77;124691;1099;101965;-74
2023/10/07 01:53:38;;;;;;;22.00;7.77;;;;;;;9.98;58.62;101195.61;124726;1099;104166;-73
2023/10/07 01:56:12;;;;;;;31.17;8.63;;;;;;;9.94;58.44;101180.58;124709;1099;104153;-74
2023/10/07 01:58:45;;;;;;;29.90;9.10;;;;;;;9.94;58.85;101174.41;124675;1099;101830;-74
2023/10/07 02:01:19;;;;;;;25.53;8.93;;;;;;;9.95;59.22;101171.87;124764;1099;104269;-74
2023/10/07 02:03:51;;;;;;;22.87;9.40;;;;;;;9.96;58.65;101173.67;124405;1099;104185;-74
2023/10/07 02:06:22;;;;;;;25.70;8.97;;;;;;;9.98;58.73;101168.51;124651;1099;104498;-74
2023/10/07 02:08:54;;;;;;;21.10;9.00;;;;;;;10.00;59.40;101172.09;124762;1099;103655;-74
2023/10/07 02:11:31;;;;;;;26.87;9.43;;;;;;;9.96;58.78;101167.55;124693;1099;104284;-75
2023/10/07 02:14:03;;;;;;;30.10;9.07;;;;;;;9.92;59.06;101158.61;124808;1099;104239;-74
2023/10/07 02:16:34;;;;;;;41.57;10.53;;;;;;;9.95;59.71;101158.76;124808;1099;104300;-74
2023/10/07 02:19:05;;;;;;;30.47;9.97;;;;;;;9.98;59.79;101155.40;124748;1099;104243;-74
2023/10/07 02:21:37;;;;;;;36.63;9.60;;;;;;;9.99;59.15;101152.85;124703;1099;101868;-74
2023/10/07 02:24:14;;;;;;;33.93;10.07;;;;;;;10.00;59.47;101149.42;124466;1098;104277;-74
2023/10/07 02:26:45;;;;;;;27.97;9.63;;;;;;;9.99;59.76;101150.23;124284;1099;104165;-74
2023/10/07 02:29:19;;;;;;;26.00;9.47;;;;;;;10.00;59.76;101132.77;124752;1099;102029;-74
2023/10/07 02:31:52;;;;;;;28.70;9.73;;;;;;;10.01;59.68;101135.46;124690;1099;104217;-74
2023/10/07 02:34:29;;;;;;;30.53;9.27;;;;;;;10.01;59.88;101129.33;124756;1099;104245;-74
2023/10/07 02:37:10;;;;;;;25.40;8.30;;;;;;;9.98;59.40;101127.45;124669;1099;104182;-74
2023/10/07 02:39:48;;;;;;;22.47;8.10;;;;;;;9.95;60.16;101121.17;124294;1099;104166;-75
2023/10/07 02:42:24;;;;;;;27.07;9.20;;;;;;;9.95;59.82;101119.44;124667;1099;104185;-75
2023/10/07 02:45:19;;;;;;;25.63;9.00;;;;;;;9.95;59.89;101114.19;124260;1099;104712;-74
2023/10/07 02:47:53;;;;;;;26.23;8.13;;;;;;;9.93;59.80;101110.61;124522;1099;104089;-73
2023/10/07 02:50:25;;;;;;;24.47;7.83;;;;;;;9.89;59.78;101108.66;124206;1099;102008;-74
2023/10/07 02:52:57;;;;;;;23.13;8.20;;;;;;;9.87;60.42;101091.96;124434;1099;104188;-74
2023/10/07 02:55:45;;;;;;;24.20;8.10;;;;;;;9.87;59.77;101089.34;124228;1099;101912;-74
2023/10/07 02:58:27;;;;;;;22.00;8.60;;;;;;;9.86;60.35;101082.29;124516;1099;104191;-74
2023/10/07 03:01:11;;;;;;;23.77;8.30;;;;;;;9.86;59.93;101070.11;124291;1102;102862;-74
2023/10/07 03:03:48;;;;;;;23.02;7.97;;;;;;;9.82;60.66;101065.53;124288;1099;104193;-74
2023/10/07 03:06:20;;;;;;;26.57;9.73;;;;;;;9.82;60.08;101062.91;124233;1099;104201;-74
2023/10/07 03:09:00;;;;;;;23.13;9.30;;;;;;;9.78;60.80;101060.06;124382;1099;101916;-74
2023/10/07 03:11:48;;;;;;;24.37;9.60;;;;;;;9.76;60.24;101059.99;124338;1099;104198;-74
2023/10/07 03:14:26;;;;;;;24.37;9.37;;;;;;;9.72;60.37;101063.28;124355;1099;104176;-75
2023/10/07 03:17:00;;;;;;;27.47;10.60;;;;;;;9.68;61.14;101056.12;124383;1099;104319;-74
2023/10/07 03:19:47;;;;;;;22.90;10.30;;;;;;;9.69;60.83;101052.65;124340;1099;104169;-74
2023/10/07 03:22:18;;;;;;;26.57;10.03;;;;;;;9.69;60.94;101048.33;124721;1099;102383;-74
2023/10/07 03:24:59;;;;;;;27.20;8.67;;;;;;;9.65;61.15;101037.63;124194;1099;104242;-74
2023/10/07 03:27:39;;;;;;;20.27;8.20;;;;;;;9.64;61.17;101043.68;124617;1099;104083;-75
2023/10/07 03:30:15;;;;;;;24.10;8.67;;;;;;;9.59;60.44;101040.84;124343;1099;101897;-74
2023/10/07 03:35:59;;;;;;;27.30;8.67;;;;;;;9.51;60.62;101035.23;124266;1099;104185;-74
2023/10/07 03:38:30;;;;;;;20.43;7.70;;;;;;;9.52;61.00;101028.25;124360;1099;104429;-74
2023/10/07 03:41:01;;;;;;;20.83;8.37;;;;;;;9.55;60.63;101017.92;124492;1099;104296;-74
2023/10/07 03:43:37;;;;;;;20.27;7.97;;;;;;;9.54;60.76;101019.66;124247;1099;104236;-74
2023/10/07 03:46:08;;;;;;;26.30;8.07;;;;;;;9.53;61.38;101016.95;124293;1099;104242;-74
2023/10/07 03:48:40;;;;;;;19.83;8.03;;;;;;;9.52;60.86;101012.53;124422;1099;104178;-74
2023/10/07 03:51:12;;;;;;;22.67;8.37;;;;;;;9.52;61.19;101012.53;124218;1098;104395;-73
2023/10/07 03:53:45;;;;;;;21.43;8.20;;;;;;;9.51;61.20;101009.03;124301;1099;101875;-74
2023/10/07 03:56:20;;;;;;;23.87;8.53;;;;;;;9.50;60.67;101007.22;124537;1099;104246;-74
2023/10/07 03:58:53;;;;;;;21.83;8.60;;;;;;;9.52;61.05;100999.44;124561;1099;104201;-74
2023/10/07 04:01:26;;;;;;;20.07;7.67;;;;;;;9.54;60.56;101003.94;124674;1099;104181;-74
2023/10/07 04:03:59;;;;;;;27.00;8.35;;;;;;;9.56;61.22;100993.53;124752;1099;104278;-74
2023/10/07 04:06:34;;;;;;;26.30;8.93;;;;;;;9.58;60.78;100991.87;124281;1099;104236;-75
2023/10/07 04:09:10;;;;;;;22.57;8.30;;;;;;;9.60;60.66;100987.62;124651;1099;101992;-74
2023/10/07 04:11:48;;;;;;;23.67;8.07;;;;;;;9.64;61.35;100988.66;124545;1099;102296;-74
2023/10/07 04:14:27;;;;;;;25.47;8.27;;;;;;;9.66;61.29;100980.05;124639;1099;104201;-74
2023/10/07 04:17:00;;;;;;;23.50;8.23;;;;;;;9.69;60.72;100985.44;124561;1098;104380;-74
2023/10/07 04:19:35;;;;;;;21.30;8.37;;;;;;;9.66;60.71;100987.91;124528;1099;101959;-74
2023/10/07 04:22:09;;;;;;;25.73;7.70;;;;;;;9.64;61.40;100986.03;124735;1099;101823;-74
2023/10/07 04:24:44;;;;;;;23.65;8.20;;;;;;;9.66;61.12;100987.91;124674;1099;104205;-74
2023/10/07 04:27:20;;;;;;;25.20;7.90;;;;;;;9.67;61.67;100984.45;124542;1099;101953;-74
2023/10/07 04:29:53;;;;;;;21.93;8.50;;;;;;;9.69;61.97;100985.44;124428;1099;104208;-74
2023/10/07 04:32:27;;;;;;;21.73;8.07;;;;;;;9.72;61.82;100976.80;124468;1098;104213;-74
2023/10/07 04:35:15;;;;;;;26.73;8.77;;;;;;;9.68;61.64;100967.91;124453;1099;104223;-74
2023/10/07 04:37:52;;;;;;;26.57;8.13;;;;;;;9.66;62.10;100966.95;124683;1099;104219;-74
2023/10/07 04:40:53;;;;;;;27.23;7.77;;;;;;;9.71;61.74;100978.53;124611;1098;104267;-74
2023/10/07 04:43:36;;;;;;;25.10;8.63;;;;;;;9.74;61.63;100974.25;124712;1099;102448;-74
2023/10/07 04:46:21;;;;;;;24.10;8.07;;;;;;;9.77;61.61;100972.69;124686;1099;104198;-74
2023/10/07 04:48:56;;;;;;;21.50;7.90;;;;;;;9.81;62.34;100971.98;124747;1099;105528;-75
2023/10/07 04:51:47;;;;;;;25.77;8.80;;;;;;;9.83;61.78;100964.20;124726;1099;104715;-74
2023/10/07 04:54:21;;;;;;;25.00;7.33;;;;;;;9.86;62.10;100974.82;124710;1099;101957;-74
2023/10/07 04:57:00;;;;;;;26.83;7.50;;;;;;;9.93;62.25;100969.05;124671;1099;102002;-74
2023/10/07 04:59:32;;;;;;;17.75;6.05;;;;;;;10.00;62.81;100970.21;124220;1099;104294;-74
2023/10/07 05:02:10;;;;;;;14.10;5.60;;;;;;;10.05;62.10;100964.36;124697;1099;104262;-74
2023/10/07 05:04:48;;;;;;;16.57;5.43;;;;;;;10.15;62.03;100965.66;124616;1099;104166;-75
2023/10/07 05:07:26;;;;;;;15.63;5.10;;;;;;;10.23;62.00;100961.64;124742;1099;102431;-75
2023/10/07 05:09:57;;;;;;;15.97;4.57;;;;;;;10.31;62.09;100959.36;124340;1099;104342;-75
2023/10/07 05:12:29;;;;;;;16.37;4.70;;;;;;;10.39;62.19;100958.03;124734;1099;103513;-74
2023/10/07 05:15:05;;;;;;;16.00;4.70;;;;;;;10.47;61.96;100957.45;124619;1098;102282;-75
2023/10/07 05:17:36;;;;;;;13.37;4.60;;;;;;;10.52;62.10;100954.20;124786;1099;104220;-75
2023/10/07 05:20:26;;;;;;;14.33;4.70;;;;;;;10.56;62.34;100968.34;124672;1099;102100;-75
2023/10/07 05:23:00;;;;;;;14.27;5.20;;;;;;;10.60;62.94;100970.28;124122;1099;104201;-74
2023/10/07 05:25:35;;;;;;;10.83;4.20;;;;;;;10.64;62.84;100964.31;124852;1099;104256;-74
2023/10/07 05:28:10;;;;;;;14.07;4.53;;;;;;;10.68;62.40;100974.12;124370;1102;102021;-76
2023/10/07 05:30:50;;;;;;;11.00;4.10;;;;;;;10.72;62.04;100981.31;124845;1099;104205;-74
2023/10/07 05:33:24;;;;;;;12.57;4.80;;;;;;;10.76;61.79;100982.33;124787;1099;104623;-75
2023/10/07 05:35:58;;;;;;;;;;;;;;;10.80;61.63;100973.76;124965;1099;102519;-74
2023/10/07 05:38:30;;;;;;;12.57;4.20;;;;;;;10.89;61.81;100971.52;124933;1096;104185;-76
2023/10/07 05:41:01;;;;;;;12.00;4.63;;;;;;;10.97;61.62;100958.72;124611;1099;104166;-75
2023/10/07 05:43:33;;;;;;;10.23;4.03;;;;;;;11.08;62.10;100965.30;124553;1099;104214;-75
2023/10/07 05:46:04;;;;;;;13.67;4.40;;;;;;;11.17;61.91;100963.87;124829;1099;101976;-74
2023/10/07 05:48:38;;;;;;;13.43;3.90;;;;;;;11.26;61.99;100964.24;124812;1099;104316;-76
2023/10/07 05:51:11;;;;;;;11.10;3.77;;;;;;;11.32;61.65;100959.23;124615;1099;104178;-75
2023/10/07 05:53:45;;;;;;;11.90;3.80;;;;;;;11.40;62.08;100952.55;124977;1098;104211;-75
2023/10/07 05:56:17;;;;;;;13.78;4.20;;;;;;;11.49;61.42;100942.39;124941;1099;104274;-75
2023/10/07 05:58:48;;;;;;;14.60;4.00;;;;;;;11.58;61.47;100939.24;124971;1099;104166;-75
2023/10/07 06:01:19;;;;;;;15.17;4.07;;;;;;;11.67;61.53;100936.97;124920;1099;104328;-75
2023/10/07 06:03:51;;;;;;;15.93;3.93;;;;;;;11.76;61.50;100931.14;124794;1099;104275;-75
2023/10/07 06:06:23;;;;;;;13.53;4.73;;;;;;;11.85;61.44;100927.97;124973;1099;104166;-75
2023/10/07 06:08:54;;;;;;;14.03;3.90;;;;;;;11.95;61.28;100938.05;124688;1098;104300;-75
2023/10/07 06:11:31;;;;;;;13.50;3.90;;;;;;;12.05;61.11;100934.01;124481;1099;101957;-73
2023/10/07 06:14:06;;;;;;;10.00;3.87;;;;;;;12.15;61.12;100925.59;124661;1099;104352;-75
2023/10/07 06:16:37;;;;;;;10.93;4.23;;;;;;;12.28;61.07;100926.03;124716;1099;104195;-74
2023/10/07 06:19:11;;;;;;;13.20;4.47;;;;;;;12.41;60.99;100923.00;124837;1099;104174;-74
2023/10/07 06:21:50;;;;;;;12.27;4.00;;;;;;;12.54;60.68;100919.05;124737;1098;101811;-75
2023/10/07 06:24:23;;;;;;;11.47;4.00;;;;;;;12.66;60.61;100910.69;124570;1099;101969;-75
2023/10/07 06:26:55;;;;;;;10.80;4.07;;;;;;;12.77;60.49;100899.66;124404;1099;104072;-73
2023/10/07 06:29:31;;;;;;;11.83;3.97;;;;;;;12.92;60.30;100901.02;124464;1099;104108;-74
2023/10/07 06:32:22;;;;;;;13.50;4.07;;;;;;;13.09;60.12;100898.94;124817;1099;104245;-75
2023/10/07 06:34:55;;;;;;;12.20;4.20;;;;;;;13.25;60.08;100901.19;124954;1098;104258;-74
2023/10/07 06:37:28;;;;;;;12.68;4.25;;;;;;;13.41;60.05;100888.52;124880;1099;101942;-74
2023/10/07 06:40:01;;;;;;;11.97;4.20;;;;;;;13.58;59.20;100878.48;124904;1099;102435;-74
2023/10/07 06:42:33;;;;;;;11.57;4.20;;;;;;;13.74;59.50;100863.98;124971;1099;104213;-74
2023/10/07 06:45:08;;;;;;;19.00;4.80;;;;;;;13.89;59.32;100842.44;124895;1099;104227;-74
2023/10/07 06:47:39;;;;;;;12.00;4.17;;;;;;;14.06;58.44;100850.81;124855;1099;104214;-75
2023/10/07 06:50:18;;;;;;;10.97;3.80;;;;;;;14.20;58.54;100854.71;124801;1099;102093;-74
2023/10/07 06:52:49;;;;;;;12.33;4.30;;;;;;;14.33;59.02;100853.28;124741;1099;104176;-75
2023/10/07 06:55:20;;;;;;;10.57;3.90;;;;;;;14.46;58.20;100855.39;124865;1099;104220;-75
2023/10/07 06:57:56;;;;;;;14.27;4.20;;;;;;;14.59;58.70;100848.66;124891;1099;104242;-74
2023/10/07 07:00:44;;;;;;;14.07;4.00;;;;;;;14.72;57.70;100841.95;124881;1099;103157;-74
2023/10/07 07:03:18;;;;;;;11.63;3.53;;;;;;;14.87;58.26;100837.05;124742;1099;102568;-75
2023/10/07 07:05:49;;;;;;;13.70;4.37;;;;;;;15.05;57.50;100839.23;124605;1099;104159;-76
2023/10/07 07:08:22;;;;;;;12.00;4.07;;;;;;;15.23;57.25;100836.09;124903;1099;104226;-75
2023/10/07 07:10:56;;;;;;;13.72;3.95;;;;;;;15.40;56.52;100840.87;124349;1099;104070;-74
2023/10/07 07:13:27;;;;;;;9.45;3.30;;;;;;;15.54;56.36;100841.16;125029;1099;104277;-76
2023/10/07 07:16:06;;;;;;;14.73;4.00;;;;;;;15.68;56.17;100837.04;124608;1099;104291;-76
2023/10/07 07:18:40;;;;;;;8.35;3.30;;;;;;;15.78;55.93;100835.49;124693;1098;104339;-76
2023/10/07 07:21:31;;;;;;;12.00;3.50;;;;;;;15.89;55.45;100835.70;124994;1098;104182;-75
2023/10/07 07:24:04;;;;;;;10.27;3.30;;;;;;;15.99;55.30;100833.27;124902;1099;104172;-76
2023/10/07 07:26:38;;;;;;;13.73;3.73;;;;;;;16.07;55.04;100836.05;125068;1099;101939;-76
2023/10/07 07:29:10;;;;;;;10.33;3.90;;;;;;;16.15;55.10;100830.91;124546;1098;104362;-76
2023/10/07 07:31:42;;;;;;;8.93;3.33;;;;;;;16.21;54.18;100820.42;124570;1099;104223;-76
2023/10/07 07:34:26;;;;;;;8.53;3.67;;;;;;;16.28;54.66;100826.71;125043;1099;101823;-76
2023/10/07 07:37:02;;;;;;;12.87;3.83;;;;;;;16.36;54.61;100835.67;125100;1099;104347;-77
2023/10/07 07:39:35;;;;;;;8.13;3.07;;;;;;;16.42;54.43;100824.30;125292;1099;102322;-77
2023/10/07 07:42:21;;;;;;;13.78;3.98;;;;;;;16.51;54.14;100821.81;125120;1099;104316;-76
2023/10/07 07:44:57;;;;;;;9.60;3.50;;;;;;;16.60;53.79;100806.06;124619;1099;107795;-77
2023/10/07 07:47:31;;;;;;;10.17;3.60;;;;;;;16.71;53.37;100790.34;124973;1099;104173;-76
2023/10/07 07:50:07;;;;;;;12.70;3.95;;;;;;;16.84;53.27;100776.42;124905;1099;104416;-76
2023/10/07 07:52:39;;;;;;;12.43;3.60;;;;;;;16.96;52.82;100758.93;124723;1098;101842;-76
2023/10/07 07:55:14;;;;;;;10.07;3.53;;;;;;;17.09;53.22;100762.63;124937;1099;118651;-76
2023/10/07 07:57:46;;;;;;;12.03;3.80;;;;;;;17.19;52.50;100757.47;124651;1099;104230;-76
2023/10/07 08:00:20;;;;;;;9.17;3.87;;;;;;;17.30;52.37;100756.72;125050;1098;102252;-75
2023/10/07 08:02:55;;;;;;;17.00;3.97;;;;;;;17.41;52.03;100758.61;124482;1099;101866;-73
2023/10/07 08:05:33;;;;;;;8.83;3.57;;;;;;;17.53;51.98;100754.31;124571;1102;104232;-74
2023/10/07 08:08:09;;;;;;;10.53;3.40;;;;;;;17.67;52.08;100758.03;124591;1099;101970;-74
2023/10/07 08:10:40;;;;;;;13.07;3.93;;;;;;;17.78;51.88;100760.80;124538;1098;104364;-76
2023/10/07 08:13:11;;;;;;;11.40;3.60;;;;;;;17.87;51.65;100754.67;124588;1099;104284;-75
2023/10/07 08:15:47;;;;;;;11.23;4.10;;;;;;;17.95;51.24;100758.31;124604;1099;109869;-74
2023/10/07 08:18:22;;;;;;;10.53;3.70;;;;;;;18.01;51.18;100746.88;124663;1098;104182;-76
2023/10/07 08:20:56;;;;;;;12.47;4.23;;;;;;;18.10;50.90;100736.34;125024;1099;102402;-76
2023/10/07 08:23:28;;;;;;;;;;;;;;;18.19;49.80;100736.42;125108;1099;104181;-76
2023/10/07 08:26:08;;;;;;;13.43;3.70;;;;;;;18.33;50.50;100723.25;124876;1098;104214;-74
2023/10/07 08:28:44;;;;;;;14.23;4.00;;;;;;;18.50;50.30;100720.71;124543;1099;104242;-74
2023/10/07 08:31:19;;;;;;;10.80;3.80;;;;;;;18.73;49.73;100714.63;124819;1098;101820;-73
2023/10/07 08:34:04;;;;;;;13.67;4.00;;;;;;;18.91;50.07;100712.11;124764;1099;104245;-75
2023/10/07 08:36:36;;;;;;;16.23;4.27;;;;;;;19.14;49.96;100711.33;124917;1099;107060;-77
2023/10/07 08:39:09;;;;;;;13.97;4.10;;;;;;;19.31;49.63;100714.06;124802;1098;102204;-75
2023/10/07 08:41:41;;;;;;;15.37;4.17;;;;;;;19.44;48.66;100709.66;124997;1099;101883;-75
2023/10/07 08:44:15;;;;;;;11.33;4.00;;;;;;;19.61;49.52;100709.69;124644;1099;102480;-77
2023/10/07 08:46:52;;;;;;;8.10;3.40;;;;;;;19.74;48.63;100693.74;124535;1099;104325;-76
2023/10/07 08:49:25;;;;;;;9.07;3.73;;;;;;;19.82;48.11;100701.77;124915;1099;104153;-76
2023/10/07 08:51:59;;;;;;;13.10;4.25;;;;;;;19.88;47.55;100703.53;124476;1099;104191;-76
2023/10/07 08:54:37;;;;;;;10.87;3.90;;;;;;;19.91;47.77;100700.88;124478;1099;104634;-76
2023/10/07 08:57:15;;;;;;;9.60;3.65;;;;;;;19.98;47.48;100694.67;124445;1102;104328;-78
2023/10/07 08:59:49;;;;;;;13.07;4.20;;;;;;;20.10;46.94;100689.34;124519;1099;104240;-76
2023/10/07 09:02:27;;;;;;;10.77;4.23;;;;;;;20.19;46.85;100699.09;124694;1099;104171;-77
2023/10/07 09:04:59;;;;;;;13.83;3.77;;;;;;;20.23;46.63;100694.67;124947;1099;104182;-76
2023/10/07 09:07:32;;;;;;;13.53;3.93;;;;;;;20.29;46.57;100689.33;124822;1099;104242;-75
2023/10/07 09:10:13;;;;;;;11.65;4.08;;;;;;;20.29;46.48;100689.33;125012;1098;102328;-77
2023/10/07 09:12:49;;;;;;;13.17;3.93;;;;;;;20.35;46.06;100684.00;124995;1099;104271;-74
2023/10/07 09:15:25;;;;;;;18.03;4.27;;;;;;;20.44;45.83;100667.08;124711;1098;104190;-76
2023/10/07 09:18:03;;;;;;;20.07;4.10;;;;;;;20.53;45.13;100663.52;124664;1098;104268;-75
2023/10/07 09:20:43;;;;;;;12.13;4.07;;;;;;;20.60;45.21;100657.26;124772;1099;102460;-76
2023/10/07 09:23:19;;;;;;;14.50;4.57;;;;;;;20.65;44.68;100653.73;124688;1099;102357;-74
2023/10/07 09:25:51;;;;;;;11.90;3.90;;;;;;;20.78;44.67;100648.36;124471;1099;101938;-76
2023/10/07 09:28:31;;;;;;;12.70;4.30;;;;;;;20.93;44.40;100639.41;124621;1099;104326;-74
2023/10/07 09:31:06;;;;;;;13.67;4.27;;;;;;;21.07;44.91;100632.22;124533;1099;101939;-74
2023/10/07 09:33:41;;;;;;;11.30;4.03;;;;;;;21.23;43.99;100621.46;124600;1099;104169;-74
2023/10/07 09:39:14;;;;;;;16.50;4.33;;;;;;;21.39;43.44;100617.78;124959;1099;102316;-74
2023/10/07 09:41:45;;;;;;;15.33;3.80;;;;;;;21.43;43.35;100616.87;124878;1099;104198;-76
2023/10/07 09:44:26;;;;;;;12.87;3.93;;;;;;;21.41;42.73;100607.09;124805;1099;104183;-75
2023/10/07 09:47:03;;;;;;;11.40;3.80;;;;;;;21.31;42.70;100595.60;124872;1099;104166;-75
2023/10/07 09:49:36;;;;;;;10.67;3.63;;;;;;;21.33;42.47;100591.12;124424;1099;104207;-79
2023/10/07 09:52:16;;;;;;;9.80;3.90;;;;;;;21.40;41.42;100589.33;124906;1099;104320;-75
2023/10/07 09:55:18;;;;;;;11.43;3.90;;;;;;;21.48;42.31;100585.67;124467;1102;104249;-76
2023/10/07 09:58:01;;;;;;;7.90;3.40;;;;;;;21.54;41.75;100582.99;125007;1099;104258;-77
2023/10/07 10:00:44;;;;;;;11.17;3.70;;;;;;;21.61;42.21;100582.95;124763;1099;104896;-77
2023/10/07 10:03:51;;;;;;;13.60;4.27;;;;;;;21.60;41.79;100584.73;125143;1099;104227;-76
2023/10/07 10:06:40;;;;;;;9.15;3.70;;;;;;;21.64;40.67;100564.23;124744;1099;102112;-76
2023/10/07 10:09:14;;;;;;;10.47;3.60;;;;;;;21.68;41.26;100563.31;124685;1099;102183;-76
2023/10/07 10:12:18;;;;;;;13.33;4.00;;;;;;;21.74;40.75;100560.59;124995;1099;102000;-77
2023/10/07 10:15:50;;;;;;;13.17;4.00;;;;;;;21.77;40.77;100560.56;125196;1099;102209;-76
2023/10/07 10:17:53;;;;;;;8.60;3.63;;;;;;;21.76;39.53;100547.22;125232;1099;102037;-77
2023/10/07 10:20:42;;;;;;;12.27;4.00;;;;;;;21.73;40.06;100553.47;125384;1098;101919;-79
2023/10/07 10:23:19;;;;;;;12.50;3.93;;;;;;;21.79;39.70;100558.75;125061;1098;104172;-76
2023/10/07 10:25:54;;;;;;;9.03;4.00;;;;;;;21.85;39.50;100548.01;125012;1099;104197;-75
2023/10/07 10:28:27;;;;;;;11.83;3.90;;;;;;;21.93;39.62;100547.05;124666;1099;104227;-77
2023/10/07 10:30:57;;;;;;;;;;;;;;;21.98;40.04;100532.73;124694;1099;104175;-75
2023/10/07 10:33:29;;;;;;;8.57;3.90;;;;;;;22.03;40.23;100519.32;124778;1099;104267;-75
2023/10/07 10:36:02;;;;;;;13.60;4.13;;;;;;;22.06;38.99;100509.50;124698;1099;104342;-75
2023/10/07 10:38:40;;;;;;;12.10;3.80;;;;;;;22.07;38.68;100513.92;124751;1099;104166;-77
2023/10/07 10:41:15;;;;;;;11.03;3.83;;;;;;;22.05;38.78;100513.06;124591;1099;104194;-75
2023/10/07 10:43:47;;;;;;;7.97;3.53;;;;;;;22.11;38.54;100497.86;124712;1099;101936;-74
2023/10/07 10:46:20;;;;;;;10.40;3.70;;;;;;;22.15;38.34;100497.80;124425;1099;104264;-73
2023/10/07 10:48:54;;;;;;;9.73;3.97;;;;;;;22.19;38.70;100482.60;124895;1099;104235;-74
2023/10/07 10:51:33;;;;;;;10.90;4.00;;;;;;;22.23;38.16;100471.86;124887;1099;102373;-73
2023/10/07 10:54:05;;;;;;;11.07;4.00;;;;;;;22.27;37.53;100464.70;124849;1099;102316;-76
2023/10/07 10:56:55;;;;;;;11.40;3.70;;;;;;;22.24;37.42;100460.27;124922;1098;102325;-77
2023/10/07 10:59:42;;;;;;;10.70;4.03;;;;;;;22.20;37.09;100461.20;124722;1098;118631;-76
2023/10/07 11:02:20;;;;;;;12.47;3.80;;;;;;;22.21;36.99;100454.97;117532;1099;10001748;-76
2023/10/07 11:04:54;;;;;;;9.57;3.33;;;;;;;22.27;37.25;100459.36;116327;1099;10001067;-74
2023/10/07 11:07:26;;;;;;;9.13;4.15;;;;;;;22.34;37.02;100449.50;124515;1099;104187;-77
2023/10/07 11:09:57;;;;;;;15.77;3.70;;;;;;;22.37;37.27;100438.77;124503;1099;104166;-76
2023/10/07 11:12:29;;;;;;;8.40;3.80;;;;;;;22.41;37.18;100448.52;124506;1099;104226;-76
2023/10/07 11:15:13;;;;;;;11.33;3.87;;;;;;;22.41;36.56;100445.84;124765;1099;104338;-78
2023/10/07 11:17:56;;;;;;;8.90;3.90;;;;;;;22.35;36.94;100436.11;124620;1099;102852;-77
2023/10/07 11:20:34;;;;;;;11.03;3.77;;;;;;;22.35;36.59;100436.11;124646;1099;107037;-77
2023/10/07 11:23:06;;;;;;;11.00;3.90;;;;;;;22.35;36.22;100428.09;124701;1099;104229;-76
2023/10/07 11:25:41;;;;;;;10.77;4.00;;;;;;;22.35;35.72;100441.45;125084;1099;102112;-78
2023/10/07 11:28:15;;;;;;;7.73;3.60;;;;;;;22.31;35.82;100429.03;124594;1099;101857;-75
2023/10/07 11:30:47;;;;;;;11.33;3.47;;;;;;;22.30;35.80;100429.95;124975;1099;117680;-77
2023/10/07 11:33:19;;;;;;;14.37;3.80;;;;;;;22.33;35.72;100420.98;125025;1099;104188;-76
2023/10/07 11:36:03;;;;;;;7.07;3.90;;;;;;;22.34;35.14;100418.30;125173;1099;104165;-77
2023/10/07 11:38:34;;;;;;;8.13;3.67;;;;;;;22.39;35.47;100411.12;125197;1099;104079;-78
2023/10/07 11:41:10;;;;;;;14.97;4.20;;;;;;;22.44;34.38;100411.05;125251;1099;104224;-77
2023/10/07 11:43:47;;;;;;;14.10;4.00;;;;;;;22.49;34.99;100411.86;125139;1099;104166;-78
2023/10/07 11:46:19;;;;;;;8.37;3.60;;;;;;;22.53;35.03;100401.98;124762;1099;104166;-76
2023/10/07 11:48:51;;;;;;;10.80;4.10;;;;;;;22.56;34.67;100393.92;124580;1099;104233;-75
2023/10/07 11:51:27;;;;;;;11.90;3.67;;;;;;;22.61;34.90;100406.33;124771;1099;101935;-75